createdAt,value
2022-12-06T00:01:33.943Z,22.17
2022-12-06T00:04:02.024Z,24.40
2022-12-06T00:06:30.044Z,23.83
2022-12-06T00:08:57.142Z,22.37
2022-12-06T00:11:25.649Z,20.47
2022-12-06T00:13:53.125Z,23.27
2022-12-06T00:16:19.619Z,18.80
2022-12-06T00:18:47.912Z,26.67
2022-12-06T00:21:15.988Z,24.67
2022-12-06T00:23:43.580Z,21.00
2022-12-06T00:26:10.024Z,20.90
2022-12-06T00:28:37.417Z,23.13
2022-12-06T00:31:05.294Z,22.10
2022-12-06T00:33:31.655Z,25.90
2022-12-06T00:35:59.687Z,24.57
2022-12-06T00:38:26.847Z,23.77
2022-12-06T00:40:58.678Z,21.27
2022-12-06T00:43:24.885Z,25.47
2022-12-06T00:45:51.137Z,21.77
2022-12-06T00:48:17.379Z,23.10
2022-12-06T00:50:43.516Z,28.43
2022-12-06T00:53:10.441Z,21.17
2022-12-06T00:55:36.580Z,20.53
2022-12-06T00:58:02.886Z,30.77
2022-12-06T01:00:29.081Z,26.63
2022-12-06T01:02:57.587Z,25.30
2022-12-06T01:05:23.818Z,27.07
2022-12-06T01:07:50.124Z,22.37
2022-12-06T01:10:17.129Z,26.00
2022-12-06T01:12:43.300Z,27.63
2022-12-06T01:15:10.280Z,29.20
2022-12-06T01:17:36.661Z,24.63
2022-12-06T01:20:03.951Z,30.20
2022-12-06T01:22:30.150Z,25.63
2022-12-06T01:24:56.328Z,36.03
2022-12-06T01:27:23.404Z,29.93
2022-12-06T01:29:49.708Z,26.80
2022-12-06T01:32:15.929Z,42.43
2022-12-06T01:34:43.918Z,38.03
2022-12-06T01:37:10.122Z,30.67
2022-12-06T01:39:36.432Z,28.27
2022-12-06T01:42:03.279Z,28.37
2022-12-06T01:44:44.305Z,40.00
2022-12-06T01:47:11.871Z,36.17
2022-12-06T01:49:38.186Z,33.57
2022-12-06T01:52:07.883Z,37.20
2022-12-06T01:54:34.480Z,39.97
2022-12-06T01:57:02.746Z,43.83
2022-12-06T01:59:29.065Z,37.93
2022-12-06T02:01:56.179Z,35.50
2022-12-06T02:04:23.139Z,30.97
2022-12-06T02:06:50.261Z,32.10
2022-12-06T02:09:17.255Z,36.37
2022-12-06T02:11:43.443Z,42.77
2022-12-06T02:14:12.187Z,40.57
2022-12-06T02:16:49.088Z,46.73
2022-12-06T02:19:32.382Z,42.83
2022-12-06T02:22:04.382Z,44.87
2022-12-06T02:24:53.979Z,64.83
2022-12-06T02:27:38.195Z,60.40
2022-12-06T02:30:11.287Z,33.70
2022-12-06T02:32:43.030Z,38.87
2022-12-06T02:35:13.741Z,37.67
2022-12-06T02:37:44.844Z,42.83
2022-12-06T02:40:14.406Z,47.37
2022-12-06T02:42:44.361Z,40.07
2022-12-06T02:45:13.158Z,40.57
2022-12-06T02:47:40.791Z,53.57
2022-12-06T02:50:10.629Z,48.13
2022-12-06T02:52:39.539Z,39.00
2022-12-06T02:55:07.486Z,56.37
2022-12-06T02:57:38.716Z,53.70
2022-12-06T03:00:36.513Z,51.87
2022-12-06T03:03:20.159Z,64.20
2022-12-06T03:05:59.030Z,40.07
2022-12-06T03:08:31.564Z,51.93
2022-12-06T03:11:00.645Z,39.47
2022-12-06T03:13:33.478Z,40.40
2022-12-06T03:16:01.354Z,36.70
2022-12-06T03:18:31.592Z,53.60
2022-12-06T03:21:00.857Z,61.70
2022-12-06T03:23:30.867Z,62.27
2022-12-06T03:25:58.875Z,44.80
2022-12-06T03:28:25.682Z,72.07
2022-12-06T03:30:52.621Z,67.43
2022-12-06T03:33:21.054Z,76.17
2022-12-06T03:35:48.059Z,67.30
2022-12-06T03:38:18.223Z,53.97
2022-12-06T03:40:47.859Z,102.90
2022-12-06T03:43:14.499Z,94.00
2022-12-06T03:45:45.510Z,86.63
2022-12-06T03:48:14.370Z,60.23
2022-12-06T03:50:43.960Z,88.53
2022-12-06T03:53:10.811Z,83.90
2022-12-06T03:55:36.986Z,75.00
2022-12-06T03:58:03.243Z,55.70
2022-12-06T04:00:29.569Z,72.63
2022-12-06T04:02:55.678Z,59.53
2022-12-06T04:05:21.898Z,61.50
2022-12-06T04:07:48.150Z,46.40
2022-12-06T04:10:15.227Z,46.87
2022-12-06T04:12:59.646Z,65.97
2022-12-06T04:15:27.235Z,48.37
2022-12-06T04:18:12.712Z,48.83
2022-12-06T04:21:02.888Z,39.83
2022-12-06T04:23:30.189Z,40.40
2022-12-06T04:25:56.968Z,41.60
2022-12-06T04:28:41.530Z,43.90
2022-12-06T04:31:25.805Z,37.90
2022-12-06T04:34:10.528Z,37.93
2022-12-06T04:36:55.279Z,48.43
2022-12-06T04:39:21.438Z,42.13
2022-12-06T04:42:06.393Z,41.83
2022-12-06T04:44:32.547Z,52.63
2022-12-06T04:46:59.348Z,40.13
2022-12-06T04:49:25.801Z,41.37
2022-12-06T04:51:52.003Z,39.83
2022-12-06T04:54:19.349Z,49.67
2022-12-06T04:56:46.531Z,50.43
2022-12-06T04:59:13.993Z,65.90
2022-12-06T05:01:40.194Z,56.70
2022-12-06T05:04:06.385Z,76.63
2022-12-06T05:06:32.776Z,111.63
2022-12-06T05:08:59.018Z,47.03
2022-12-06T05:11:25.182Z,90.23
2022-12-06T05:13:51.288Z,56.97
2022-12-06T05:16:18.194Z,64.30
2022-12-06T05:18:44.559Z,97.90
2022-12-06T05:21:12.917Z,64.43
2022-12-06T05:23:39.159Z,78.90
2022-12-06T05:26:07.683Z,64.97
2022-12-06T05:28:36.161Z,83.03
2022-12-06T05:31:02.515Z,65.47
2022-12-06T05:33:29.380Z,76.53
2022-12-06T05:35:55.623Z,74.03
2022-12-06T05:38:21.799Z,93.80
2022-12-06T05:40:48.602Z,65.63
2022-12-06T05:43:15.174Z,73.13
2022-12-06T05:45:42.244Z,62.63
2022-12-06T05:48:08.746Z,77.23
2022-12-06T05:50:36.117Z,73.00
2022-12-06T05:53:02.855Z,53.00
2022-12-06T05:55:29.378Z,63.03
2022-12-06T05:57:55.527Z,52.87
2022-12-06T06:00:21.946Z,69.83
2022-12-06T06:02:49.186Z,44.93
2022-12-06T06:05:15.674Z,51.00
2022-12-06T06:07:42.498Z,53.47
2022-12-06T06:10:09.131Z,47.83
2022-12-06T06:12:35.300Z,60.83
2022-12-06T06:15:04.289Z,52.10
2022-12-06T06:17:30.469Z,60.63
2022-12-06T06:19:56.611Z,46.83
2022-12-06T06:22:23.874Z,60.00
2022-12-06T06:24:50.914Z,49.73
2022-12-06T06:27:17.156Z,73.83
2022-12-06T06:29:45.533Z,77.00
2022-12-06T06:32:12.980Z,53.50
2022-12-06T06:34:39.207Z,62.23
2022-12-06T06:37:05.413Z,54.37
2022-12-06T06:39:32.090Z,52.33
2022-12-06T06:41:58.922Z,53.03
2022-12-06T06:44:25.075Z,45.83
2022-12-06T06:46:51.235Z,59.70
2022-12-06T06:49:18.062Z,44.63
2022-12-06T06:51:44.387Z,52.03
2022-12-06T06:54:10.573Z,63.23
2022-12-06T06:56:36.743Z,53.03
2022-12-06T06:59:03.655Z,45.13
2022-12-06T07:01:30.158Z,53.17
2022-12-06T07:03:56.314Z,38.27
2022-12-06T07:06:22.466Z,46.30
2022-12-06T07:08:48.583Z,39.40
2022-12-06T07:11:15.265Z,63.77
2022-12-06T07:13:45.722Z,44.57
2022-12-06T07:16:16.831Z,43.33
2022-12-06T07:18:43.362Z,44.00
2022-12-06T07:21:12.071Z,44.17
2022-12-06T07:23:38.651Z,40.07
2022-12-06T07:26:06.488Z,51.27
2022-12-06T07:28:34.679Z,47.63
2022-12-06T07:31:07.375Z,40.47
2022-12-06T07:33:34.228Z,48.83
2022-12-06T07:36:15.628Z,35.67
2022-12-06T07:38:42.109Z,43.20
2022-12-06T07:41:25.073Z,38.13
2022-12-06T07:44:09.372Z,38.27
2022-12-06T07:46:35.642Z,40.70
2022-12-06T07:49:02.587Z,44.37
2022-12-06T07:51:28.728Z,57.97
2022-12-06T07:53:54.887Z,46.30
2022-12-06T07:56:21.057Z,55.43
2022-12-06T07:58:47.216Z,46.90
2022-12-06T08:01:13.457Z,44.40
2022-12-06T08:03:39.598Z,48.40
2022-12-06T08:06:07.799Z,45.40
2022-12-06T08:08:34.175Z,53.17
2022-12-06T08:11:00.801Z,49.77
2022-12-06T08:13:27.541Z,56.13
2022-12-06T08:15:53.825Z,48.03
2022-12-06T08:18:20.087Z,56.97
2022-12-06T08:20:46.253Z,49.80
2022-12-06T08:23:13.790Z,52.40
2022-12-06T08:25:39.975Z,48.63
2022-12-06T08:28:06.104Z,48.70
2022-12-06T08:30:32.498Z,51.83
2022-12-06T08:32:58.644Z,46.23
2022-12-06T08:35:24.834Z,58.30
2022-12-06T08:37:50.946Z,49.97
2022-12-06T08:40:18.127Z,54.33
2022-12-06T08:42:45.201Z,57.90
2022-12-06T08:45:11.407Z,63.60
2022-12-06T08:47:37.515Z,51.30
2022-12-06T08:50:04.540Z,49.43
2022-12-06T08:52:30.720Z,51.87
2022-12-06T08:54:56.896Z,47.10
2022-12-06T08:57:23.811Z,45.47
2022-12-06T08:59:50.027Z,55.23
2022-12-06T09:02:16.198Z,59.23
2022-12-06T09:04:42.508Z,53.10
2022-12-06T09:07:11.676Z,45.57
2022-12-06T09:09:38.579Z,46.57
2022-12-06T09:12:05.196Z,49.60
2022-12-06T09:14:31.980Z,55.73
2022-12-06T09:16:58.148Z,48.73
2022-12-06T09:19:24.344Z,53.37
2022-12-06T09:21:50.644Z,48.73
2022-12-06T09:24:17.963Z,44.67
2022-12-06T09:26:44.470Z,50.33
2022-12-06T09:29:11.154Z,47.80
2022-12-06T09:31:39.549Z,62.53
2022-12-06T09:34:06.209Z,45.37
2022-12-06T09:36:32.601Z,45.87
2022-12-06T09:39:01.077Z,47.30
2022-12-06T09:41:42.847Z,48.50
2022-12-06T09:44:20.560Z,51.27
2022-12-06T09:46:55.605Z,54.57
2022-12-06T09:49:29.209Z,52.07
2022-12-06T09:52:09.051Z,47.20
2022-12-06T09:55:00.242Z,50.83
2022-12-06T09:57:32.492Z,47.53
2022-12-06T10:00:07.270Z,47.43
2022-12-06T10:03:04.077Z,49.10
2022-12-06T10:05:36.959Z,45.63
2022-12-06T10:08:12.901Z,53.37
2022-12-06T10:10:50.197Z,50.80
2022-12-06T10:13:21.643Z,55.60
2022-12-06T10:15:52.989Z,48.37
2022-12-06T10:18:42.946Z,52.83
2022-12-06T10:21:15.288Z,46.03
2022-12-06T10:24:00.125Z,47.30
2022-12-06T10:26:34.244Z,47.70
2022-12-06T10:29:09.158Z,49.87
2022-12-06T10:31:42.396Z,47.00
2022-12-06T10:34:14.606Z,53.90
2022-12-06T10:36:45.657Z,40.03
2022-12-06T10:39:16.271Z,47.50
2022-12-06T10:41:47.311Z,48.83
2022-12-06T10:44:18.895Z,46.50
2022-12-06T10:47:03.080Z,41.97
2022-12-06T10:49:36.571Z,43.60
2022-12-06T10:52:05.188Z,39.17
2022-12-06T10:54:35.012Z,42.83
2022-12-06T10:57:04.562Z,46.17
2022-12-06T10:59:34.472Z,42.87
2022-12-06T11:02:12.704Z,41.50
2022-12-06T11:04:40.724Z,37.67
2022-12-06T11:07:13.563Z,43.63
2022-12-06T11:09:41.119Z,40.03
2022-12-06T11:12:20.386Z,41.67
2022-12-06T11:14:50.105Z,36.97
2022-12-06T11:17:18.362Z,35.23
2022-12-06T11:19:48.499Z,38.33
2022-12-06T11:22:22.249Z,42.77
2022-12-06T11:24:52.252Z,37.50
2022-12-06T11:27:22.861Z,39.60
2022-12-06T11:29:49.871Z,29.10
2022-12-06T11:32:16.646Z,37.60
2022-12-06T11:34:46.448Z,35.40
2022-12-06T11:37:16.460Z,36.30
2022-12-06T11:39:43.554Z,38.17
2022-12-06T11:42:12.300Z,31.77
2022-12-06T11:44:46.394Z,31.13
2022-12-06T11:47:18.162Z,27.77
2022-12-06T11:49:45.605Z,26.17
2022-12-06T11:52:15.984Z,27.10
2022-12-06T11:54:44.575Z,34.00
2022-12-06T11:57:22.244Z,25.83
2022-12-06T12:00:11.623Z,25.77
2022-12-06T12:02:38.751Z,20.30
2022-12-06T12:05:11.235Z,18.23
2022-12-06T12:07:39.336Z,22.17
2022-12-06T12:10:24.799Z,36.27
2022-12-06T12:13:09.366Z,20.43
2022-12-06T12:15:36.273Z,16.07
2022-12-06T12:18:03.736Z,15.27
2022-12-06T12:20:33.030Z,15.60
2022-12-06T12:23:00.666Z,16.40
2022-12-06T12:25:28.741Z,12.33
2022-12-06T12:27:55.962Z,14.23
2022-12-06T12:30:25.479Z,14.03
2022-12-06T12:33:03.296Z,13.37
2022-12-06T12:35:29.434Z,13.63
2022-12-06T12:37:58.607Z,11.50
2022-12-06T12:40:28.096Z,10.43
2022-12-06T12:42:59.018Z,16.27
2022-12-06T12:45:26.867Z,14.03
2022-12-06T12:47:57.575Z,14.13
2022-12-06T12:50:23.785Z,12.70
2022-12-06T12:52:50.775Z,10.30
2022-12-06T12:55:18.900Z,11.23
2022-12-06T12:57:47.952Z,11.30
2022-12-06T13:00:15.400Z,8.97
2022-12-06T13:02:42.545Z,6.97
2022-12-06T13:08:07.229Z,9.20
2022-12-06T13:10:35.131Z,13.30
2022-12-06T13:13:04.002Z,11.23
2022-12-06T13:15:33.832Z,12.13
2022-12-06T13:18:05.866Z,10.30
2022-12-06T13:20:33.350Z,7.83
2022-12-06T13:23:03.009Z,7.23
2022-12-06T13:25:29.155Z,11.47
2022-12-06T13:28:03.792Z,8.10
2022-12-06T13:30:33.832Z,12.40
2022-12-06T13:33:03.333Z,10.27
2022-12-06T13:35:31.935Z,8.83
2022-12-06T13:38:00.722Z,11.70
2022-12-06T13:40:47.757Z,13.30
2022-12-06T13:43:54.193Z,8.57
2022-12-06T13:46:24.765Z,9.90
2022-12-06T13:48:51.900Z,8.50
2022-12-06T13:51:51.154Z,7.10
2022-12-06T13:54:34.991Z,7.97
2022-12-06T13:57:22.997Z,8.70
2022-12-06T13:59:49.374Z,5.37
2022-12-06T14:02:45.610Z,9.03
2022-12-06T14:08:15.378Z,7.70
2022-12-06T14:10:41.560Z,10.00
2022-12-06T14:13:15.025Z,6.50
2022-12-06T14:15:45.968Z,8.20
2022-12-06T14:18:18.627Z,6.37
2022-12-06T14:20:47.259Z,8.93
2022-12-06T14:23:22.696Z,10.90
2022-12-06T14:25:48.831Z,8.60
2022-12-06T14:28:14.995Z,7.87
2022-12-06T14:30:43.669Z,8.43
2022-12-06T14:33:18.420Z,8.77
2022-12-06T14:35:49.952Z,10.77
2022-12-06T14:38:22.192Z,7.83
2022-12-06T14:41:06.716Z,9.60
2022-12-06T14:43:34.477Z,8.43
2022-12-06T14:46:02.663Z,6.53
2022-12-06T14:48:51.287Z,8.47
2022-12-06T14:51:23.045Z,7.00
2022-12-06T14:53:49.784Z,7.17
2022-12-06T14:56:25.117Z,9.77
2022-12-06T14:58:51.659Z,7.93
2022-12-06T15:01:19.743Z,12.07
2022-12-06T15:03:56.726Z,9.20
2022-12-06T15:06:25.933Z,7.53
2022-12-06T15:09:08.830Z,7.73
2022-12-06T15:11:54.872Z,8.73
2022-12-06T15:14:22.712Z,9.03
2022-12-06T15:16:57.695Z,9.50
2022-12-06T15:19:24.548Z,8.33
2022-12-06T15:21:50.855Z,5.53
2022-12-06T15:24:18.165Z,6.80
2022-12-06T15:26:44.336Z,9.20
2022-12-06T15:29:10.532Z,10.37
2022-12-06T15:31:36.853Z,9.03
2022-12-06T15:34:18.702Z,9.97
2022-12-06T15:36:45.443Z,6.30
2022-12-06T15:39:11.738Z,12.73
2022-12-06T15:41:38.423Z,8.57
2022-12-06T15:44:05.065Z,8.30
2022-12-06T15:46:31.941Z,9.13
2022-12-06T15:48:58.619Z,8.83
2022-12-06T15:51:26.607Z,16.67
2022-12-06T15:53:55.545Z,9.20
2022-12-06T15:56:23.124Z,7.00
2022-12-06T15:58:49.796Z,12.77
2022-12-06T16:01:17.395Z,7.03
2022-12-06T16:03:43.694Z,7.43
2022-12-06T16:06:12.296Z,5.33
2022-12-06T16:08:38.532Z,7.30
2022-12-06T16:11:13.017Z,7.93
2022-12-06T16:13:39.290Z,9.37
2022-12-06T16:16:06.545Z,6.97
2022-12-06T16:18:32.883Z,8.03
2022-12-06T16:20:59.273Z,9.50
2022-12-06T16:24:15.466Z,11.83
2022-12-06T16:26:33.708Z,7.47
2022-12-06T16:29:01.000Z,13.07
2022-12-06T16:31:27.763Z,11.23
2022-12-06T16:33:54.232Z,9.10
2022-12-06T16:36:21.869Z,9.27
2022-12-06T16:38:53.090Z,12.13
2022-12-06T16:41:22.692Z,8.77
2022-12-06T16:43:50.057Z,10.73
2022-12-06T16:46:22.811Z,8.77
2022-12-06T16:48:55.508Z,7.53
2022-12-06T16:51:22.142Z,10.23
2022-12-06T16:53:48.949Z,8.87
2022-12-06T16:56:15.235Z,10.50
2022-12-06T16:58:41.389Z,12.40
2022-12-06T17:01:23.004Z,8.87
2022-12-06T17:03:50.675Z,6.27
2022-12-06T17:06:16.871Z,10.17
2022-12-06T17:08:43.099Z,9.63
2022-12-06T17:11:32.691Z,9.67
2022-12-06T17:13:58.851Z,7.37
2022-12-06T17:16:26.007Z,8.73
2022-12-06T17:18:52.256Z,9.30
2022-12-06T17:21:18.425Z,8.23
2022-12-06T17:23:44.565Z,11.03
2022-12-06T17:26:10.730Z,6.07
2022-12-06T17:28:36.862Z,10.13
2022-12-06T17:31:06.682Z,9.77
2022-12-06T17:33:33.719Z,10.87
2022-12-06T17:36:04.225Z,11.83
2022-12-06T17:38:30.432Z,6.97
2022-12-06T17:40:56.568Z,8.80
2022-12-06T17:43:25.653Z,12.37
2022-12-06T17:45:51.861Z,9.60
2022-12-06T17:48:18.006Z,12.17
2022-12-06T17:50:44.843Z,12.30
2022-12-06T17:53:10.960Z,9.67
2022-12-06T17:55:37.125Z,10.97
2022-12-06T17:58:03.302Z,13.70
2022-12-06T18:00:29.725Z,13.33
2022-12-06T18:02:55.959Z,8.27
2022-12-06T18:05:22.183Z,9.03
2022-12-06T18:07:50.505Z,12.67
2022-12-06T18:10:16.958Z,10.47
2022-12-06T18:12:43.075Z,9.47
2022-12-06T18:15:29.854Z,11.93
2022-12-06T18:17:56.012Z,13.37
2022-12-06T18:20:22.170Z,8.33
2022-12-06T18:22:48.312Z,10.57
2022-12-06T18:25:15.271Z,11.03
2022-12-06T18:27:41.421Z,12.07
2022-12-06T18:30:08.703Z,11.10
2022-12-06T18:32:34.821Z,12.40
2022-12-06T18:35:01.297Z,13.10
2022-12-06T18:37:27.792Z,8.77
2022-12-06T18:39:54.283Z,11.57
2022-12-06T18:42:21.176Z,13.73
2022-12-06T18:44:47.316Z,9.37
2022-12-06T18:47:13.477Z,8.53
2022-12-06T18:49:40.746Z,14.70
2022-12-06T18:52:06.884Z,12.90
2022-12-06T18:54:33.096Z,9.00
2022-12-06T18:56:59.238Z,12.20
2022-12-06T18:59:27.793Z,11.63
2022-12-06T19:01:54.299Z,10.93
2022-12-06T19:04:20.528Z,9.10
2022-12-06T19:06:46.660Z,12.93
2022-12-06T19:09:14.325Z,13.77
2022-12-06T19:11:42.942Z,11.70
2022-12-06T19:14:09.357Z,13.50
2022-12-06T19:16:37.715Z,14.87
2022-12-06T19:19:10.010Z,10.67
2022-12-06T19:21:39.115Z,11.13
2022-12-06T19:24:06.195Z,10.33
2022-12-06T19:26:33.451Z,13.13
2022-12-06T19:29:00.010Z,10.53
2022-12-06T19:31:26.219Z,13.33
2022-12-06T19:33:53.057Z,11.00
2022-12-06T19:36:23.171Z,12.57
2022-12-06T19:38:54.599Z,17.97
2022-12-06T19:41:20.728Z,13.77
2022-12-06T19:44:05.111Z,10.70
2022-12-06T19:46:31.457Z,13.53
2022-12-06T19:49:00.500Z,13.40
2022-12-06T19:51:28.189Z,13.83
2022-12-06T19:53:54.562Z,14.23
2022-12-06T19:56:21.611Z,11.70
2022-12-06T19:58:47.777Z,14.67
2022-12-06T20:01:15.299Z,15.53
2022-12-06T20:03:42.520Z,14.47
2022-12-06T20:06:17.938Z,12.63
2022-12-06T20:08:45.039Z,13.60
2022-12-06T20:11:32.490Z,14.70
2022-12-06T20:13:59.382Z,14.30
2022-12-06T20:16:26.292Z,12.40
2022-12-06T20:18:53.100Z,12.93
2022-12-06T20:21:20.044Z,13.60
2022-12-06T20:23:46.419Z,12.20
2022-12-06T20:26:14.306Z,13.33
2022-12-06T20:28:40.589Z,14.77
2022-12-06T20:31:10.190Z,16.60
2022-12-06T20:33:36.419Z,15.90
2022-12-06T20:36:09.713Z,12.53
2022-12-06T20:38:36.587Z,13.73
2022-12-06T20:41:07.703Z,17.77
2022-12-06T20:43:33.990Z,16.23
2022-12-06T20:46:06.607Z,15.07
2022-12-06T20:48:36.211Z,15.23
2022-12-06T20:51:02.936Z,18.73
2022-12-06T20:53:29.148Z,19.27
2022-12-06T20:55:56.411Z,22.00
2022-12-06T20:58:23.028Z,22.47
2022-12-06T21:00:49.490Z,24.70
2022-12-06T21:03:15.797Z,20.03
2022-12-06T21:05:45.191Z,19.03
2022-12-06T21:08:12.100Z,26.23
2022-12-06T21:10:53.851Z,18.80
2022-12-06T21:13:26.311Z,31.73
2022-12-06T21:16:00.541Z,25.10
2022-12-06T21:18:29.912Z,30.43
2022-12-06T21:20:56.483Z,21.97
2022-12-06T21:23:22.691Z,27.20
2022-12-06T21:25:48.919Z,21.90
2022-12-06T21:28:15.059Z,23.93
2022-12-06T21:30:41.905Z,32.33
2022-12-06T21:33:08.681Z,26.60
2022-12-06T21:35:35.387Z,24.70
2022-12-06T21:38:01.673Z,39.87
2022-12-06T21:40:27.847Z,20.13
2022-12-06T21:42:53.983Z,23.63
2022-12-06T21:45:20.560Z,24.17
2022-12-06T21:47:47.421Z,33.17
2022-12-06T21:50:13.581Z,24.97
2022-12-06T21:52:39.772Z,27.27
2022-12-06T21:55:06.647Z,28.83
2022-12-06T21:57:33.238Z,24.07
2022-12-06T21:59:59.772Z,27.80
2022-12-06T22:02:26.350Z,23.63
2022-12-06T22:04:53.190Z,27.03
2022-12-06T22:07:19.396Z,24.23
2022-12-06T22:09:45.535Z,23.03
2022-12-06T22:12:12.095Z,24.97
2022-12-06T22:14:38.199Z,23.67
2022-12-06T22:17:04.399Z,24.67
2022-12-06T22:19:30.674Z,24.13
2022-12-06T22:21:57.687Z,25.93
2022-12-06T22:24:23.900Z,24.83
2022-12-06T22:26:50.251Z,25.33
2022-12-06T22:29:16.489Z,27.87
2022-12-06T22:31:42.761Z,27.23
2022-12-06T22:34:09.812Z,25.97
2022-12-06T22:36:35.960Z,27.10
2022-12-06T22:39:04.383Z,23.90
2022-12-06T22:41:31.243Z,27.20
2022-12-06T22:43:58.812Z,24.90
2022-12-06T22:46:25.845Z,27.07
2022-12-06T22:48:52.403Z,24.63
2022-12-06T22:51:20.883Z,30.50
2022-12-06T22:53:51.069Z,28.23
2022-12-06T22:56:17.882Z,24.70
2022-12-06T22:58:44.079Z,33.00
2022-12-06T23:01:15.947Z,28.87
2022-12-06T23:03:42.855Z,27.20
2022-12-06T23:06:09.348Z,28.07
2022-12-06T23:08:35.605Z,29.90
2022-12-06T23:11:03.099Z,29.13
2022-12-06T23:13:30.089Z,30.10
2022-12-06T23:15:57.450Z,33.03
2022-12-06T23:18:23.697Z,24.97
2022-12-06T23:20:49.818Z,26.23
2022-12-06T23:23:16.004Z,26.37
2022-12-06T23:25:42.186Z,26.53
2022-12-06T23:28:08.576Z,30.50
2022-12-06T23:30:35.514Z,26.73
2022-12-06T23:33:01.665Z,30.93
2022-12-06T23:35:27.802Z,29.90
2022-12-06T23:37:53.929Z,31.07
2022-12-06T23:40:20.058Z,30.43
2022-12-06T23:42:46.186Z,29.43
2022-12-06T23:45:12.398Z,35.93
2022-12-06T23:47:39.168Z,31.33
2022-12-06T23:50:06.690Z,31.83
2022-12-06T23:52:33.283Z,38.13
2022-12-06T23:54:59.394Z,28.67
2022-12-06T23:57:25.545Z,28.80
2022-12-06T23:59:51.668Z,33.63
